createdAt,value
2018-02-25T00:00:40.469Z,102885.35
2018-02-25T00:03:08.067Z,102880.46
2018-02-25T00:05:35.611Z,102881.08
2018-02-25T00:08:03.198Z,102882.67
2018-02-25T00:10:30.802Z,102877.56
2018-02-25T00:12:58.351Z,102882.39
2018-02-25T00:15:25.940Z,102876.80
2018-02-25T00:17:53.490Z,102871.34
2018-02-25T00:20:21.034Z,102871.20
2018-02-25T00:22:48.582Z,102872.91
2018-02-25T00:25:16.177Z,102876.14
2018-02-25T00:27:43.726Z,102869.67
2018-02-25T00:30:11.275Z,102870.29
2018-02-25T00:32:38.925Z,102865.53
2018-02-25T00:35:06.476Z,102870.39
2018-02-25T00:37:34.018Z,102863.82
2018-02-25T00:40:01.610Z,102857.13
2018-02-25T00:42:29.178Z,102862.51
2018-02-25T00:44:56.771Z,102864.50
2018-02-25T00:47:24.328Z,102862.55
2018-02-25T00:49:51.918Z,102862.69
2018-02-25T00:52:19.551Z,102865.67
2018-02-25T00:54:47.146Z,102858.55
2018-02-25T00:57:14.716Z,102858.17
2018-02-25T00:59:42.300Z,102860.45
2018-02-25T01:02:09.846Z,102848.73
2018-02-25T01:04:37.440Z,102855.86
2018-02-25T01:07:05.037Z,102851.53
2018-02-25T01:09:32.608Z,102857.97
2018-02-25T01:12:00.186Z,102857.00
2018-02-25T01:14:27.804Z,102853.24
2018-02-25T01:16:55.392Z,102852.97
2018-02-25T01:19:22.939Z,102851.53
2018-02-25T01:21:50.481Z,102853.41
2018-02-25T01:24:18.029Z,102848.77
2018-02-25T01:26:45.703Z,102855.34
2018-02-25T01:31:47.030Z,102844.23
2018-02-25T01:34:14.580Z,102843.55
2018-02-25T01:36:42.170Z,102839.81
2018-02-25T01:39:09.756Z,102840.49
2018-02-25T01:41:37.307Z,102835.48
2018-02-25T01:44:04.852Z,102845.41
2018-02-25T01:46:32.398Z,102846.18
2018-02-25T01:48:59.989Z,102848.88
2018-02-25T01:51:27.527Z,102846.38
2018-02-25T01:53:55.075Z,102844.89
2018-02-25T01:56:22.627Z,102851.94
2018-02-25T01:58:50.186Z,102844.59
2018-02-25T02:01:17.745Z,102839.95
2018-02-25T02:03:45.294Z,102842.22
2018-02-25T02:06:12.844Z,102834.72
2018-02-25T02:08:40.428Z,102826.50
2018-02-25T02:11:07.981Z,102831.51
2018-02-25T02:13:35.531Z,102833.97
2018-02-25T02:16:03.125Z,102835.75
2018-02-25T02:18:30.678Z,102839.48
2018-02-25T02:20:58.267Z,102835.75
2018-02-25T02:23:25.818Z,102839.05
2018-02-25T02:25:53.406Z,102840.88
2018-02-25T02:28:21.872Z,102840.04
2018-02-25T02:30:49.458Z,102847.89
2018-02-25T02:33:17.045Z,102835.44
2018-02-25T02:35:44.678Z,102846.75
2018-02-25T02:38:13.015Z,102843.34
2018-02-25T02:40:40.559Z,102846.52
2018-02-25T02:43:08.163Z,102848.89
2018-02-25T02:45:36.557Z,102846.95
2018-02-25T02:48:04.817Z,102847.61
2018-02-25T02:50:33.129Z,102846.52
2018-02-25T02:53:00.686Z,102850.98
2018-02-25T02:55:29.177Z,102843.48
2018-02-25T02:57:56.722Z,102848.32
2018-02-25T03:00:24.316Z,102851.70
2018-02-25T03:02:52.582Z,102849.63
2018-02-25T03:05:20.979Z,102842.66
2018-02-25T03:07:49.343Z,102854.59
2018-02-25T03:10:17.721Z,102855.59
2018-02-25T03:12:45.271Z,102850.51
2018-02-25T03:15:13.646Z,102849.07
2018-02-25T03:17:41.191Z,102847.13
2018-02-25T03:20:08.750Z,102852.13
2018-02-25T03:22:37.121Z,102848.84
2018-02-25T03:25:05.467Z,102850.75
2018-02-25T03:27:33.060Z,102846.70
2018-02-25T03:30:01.327Z,102840.52
2018-02-25T03:32:28.915Z,102853.33
2018-02-25T03:34:56.471Z,102845.44
2018-02-25T03:37:24.020Z,102852.34
2018-02-25T03:39:52.393Z,102849.64
2018-02-25T03:42:19.977Z,102847.53
2018-02-25T03:44:47.526Z,102850.80
2018-02-25T03:47:15.106Z,102847.30
2018-02-25T03:49:43.447Z,102855.83
2018-02-25T03:52:11.007Z,102849.44
2018-02-25T03:54:38.561Z,102854.09
2018-02-25T03:57:06.156Z,102859.63
2018-02-25T03:59:33.709Z,102849.91
2018-02-25T04:02:01.258Z,102853.82
2018-02-25T04:04:28.840Z,102856.01
2018-02-25T04:06:57.326Z,102851.80
2018-02-25T04:09:24.907Z,102852.12
2018-02-25T04:11:53.368Z,102854.53
2018-02-25T04:14:20.994Z,102855.23
2018-02-25T04:16:49.326Z,102850.84
2018-02-25T04:19:16.905Z,102850.89
2018-02-25T04:21:45.289Z,102848.80
2018-02-25T04:24:12.878Z,102849.53
2018-02-25T04:26:40.467Z,102850.30
2018-02-25T04:29:08.071Z,102847.89
2018-02-25T04:31:36.326Z,102852.31
2018-02-25T04:34:03.877Z,102843.18
2018-02-25T04:36:32.345Z,102840.37
2018-02-25T04:39:00.682Z,102841.45
2018-02-25T04:41:28.276Z,102840.16
2018-02-25T04:43:55.827Z,102844.11
2018-02-25T04:46:23.376Z,102839.49
2018-02-25T04:48:50.922Z,102836.41
2018-02-25T04:51:18.483Z,102838.16
2018-02-25T04:53:46.035Z,102836.49
2018-02-25T04:56:13.586Z,102838.28
2018-02-25T04:58:41.130Z,102845.03
2018-02-25T05:01:08.678Z,102840.97
2018-02-25T05:03:37.152Z,102842.94
2018-02-25T05:06:04.702Z,102844.94
2018-02-25T05:08:32.253Z,102842.10
2018-02-25T05:10:59.803Z,102844.28
2018-02-25T05:13:27.359Z,102853.13
2018-02-25T05:15:54.913Z,102852.95
2018-02-25T05:18:23.384Z,102853.78
2018-02-25T05:20:50.937Z,102848.70
2018-02-25T05:23:18.486Z,102846.30
2018-02-25T05:25:46.807Z,102845.38
2018-02-25T05:28:15.201Z,102844.33
2018-02-25T05:30:43.526Z,102849.36
2018-02-25T05:33:11.872Z,102842.15
2018-02-25T05:35:40.189Z,102842.15
2018-02-25T05:38:07.730Z,102851.02
2018-02-25T05:40:35.326Z,102853.37
2018-02-25T05:43:02.879Z,102855.79
2018-02-25T05:45:30.425Z,102862.61
2018-02-25T05:47:58.054Z,102859.20
2018-02-25T05:50:25.621Z,102863.39
2018-02-25T05:52:53.171Z,102861.83
2018-02-25T05:55:20.722Z,102870.34
2018-02-25T05:57:48.274Z,102866.41
2018-02-25T06:00:15.827Z,102870.95
2018-02-25T06:02:44.258Z,102874.20
2018-02-25T06:05:11.806Z,102880.59
2018-02-25T06:07:39.393Z,102883.95
2018-02-25T06:10:06.979Z,102878.74
2018-02-25T06:12:35.435Z,102878.58
2018-02-25T06:15:02.990Z,102887.44
2018-02-25T06:17:31.477Z,102883.25
2018-02-25T06:19:59.043Z,102882.69
2018-02-25T06:22:27.546Z,102888.38
2018-02-25T06:24:55.125Z,102879.27
2018-02-25T06:27:23.544Z,102880.23
2018-02-25T06:29:51.136Z,102879.94
2018-02-25T06:32:19.535Z,102892.22
2018-02-25T06:34:48.103Z,102887.16
2018-02-25T06:37:15.655Z,102899.27
2018-02-25T06:39:43.246Z,102894.50
2018-02-25T06:42:11.636Z,102901.50
2018-02-25T06:44:40.026Z,102900.49
2018-02-25T06:47:07.579Z,102903.73
2018-02-25T06:49:36.035Z,102903.25
2018-02-25T06:52:04.415Z,102907.14
2018-02-25T06:54:31.967Z,102903.02
2018-02-25T06:56:59.558Z,102898.38
2018-02-25T06:59:27.110Z,102904.42
2018-02-25T07:01:54.662Z,102899.25
2018-02-25T07:04:23.149Z,102897.84
2018-02-25T07:06:50.734Z,102896.66
2018-02-25T07:09:19.542Z,102892.66
2018-02-25T07:11:47.100Z,102890.96
2018-02-25T07:14:14.659Z,102890.84
2018-02-25T07:16:43.066Z,102889.69
2018-02-25T07:19:10.619Z,102887.63
2018-02-25T07:21:39.106Z,102883.03
2018-02-25T07:24:07.437Z,102876.28
2018-02-25T07:26:35.063Z,102888.48
2018-02-25T07:29:03.328Z,102889.45
2018-02-25T07:31:30.924Z,102892.95
2018-02-25T07:33:58.475Z,102890.14
2018-02-25T07:36:26.218Z,102893.53
2018-02-25T07:38:53.772Z,102894.87
2018-02-25T07:41:22.244Z,102892.02
2018-02-25T07:43:50.584Z,102885.48
2018-02-25T07:46:18.213Z,102888.67
2018-02-25T07:48:46.860Z,102884.72
2018-02-25T07:51:14.520Z,102883.38
2018-02-25T07:53:42.071Z,102888.81
2018-02-25T07:56:09.672Z,102885.75
2018-02-25T07:58:37.231Z,102888.94
2018-02-25T08:01:04.816Z,102888.95
2018-02-25T08:03:32.379Z,102881.95
2018-02-25T08:06:00.017Z,102885.81
2018-02-25T08:08:27.707Z,102883.77
2018-02-25T08:10:55.359Z,102885.52
2018-02-25T08:13:23.707Z,102882.83
2018-02-25T08:15:51.289Z,102879.41
2018-02-25T08:18:18.979Z,102883.41
2018-02-25T08:20:46.592Z,102878.06
2018-02-25T08:23:14.162Z,102881.70
2018-02-25T08:25:41.715Z,102880.75
2018-02-25T08:28:09.268Z,102880.95
2018-02-25T08:30:37.037Z,102880.34
2018-02-25T08:33:04.699Z,102881.59
2018-02-25T08:35:32.722Z,102877.90
2018-02-25T08:38:00.518Z,102885.50
2018-02-25T08:40:28.102Z,102881.73
2018-02-25T08:42:55.696Z,102887.26
2018-02-25T08:45:23.437Z,102877.05
2018-02-25T08:47:51.094Z,102880.73
2018-02-25T08:50:18.802Z,102878.09
2018-02-25T08:52:47.556Z,102879.53
2018-02-25T08:55:15.191Z,102879.02
2018-02-25T08:57:42.824Z,102877.06
2018-02-25T09:00:10.642Z,102875.36
2018-02-25T09:02:38.407Z,102876.03
2018-02-25T09:05:05.974Z,102875.23
2018-02-25T09:07:33.570Z,102867.00
2018-02-25T09:10:01.124Z,102864.87
2018-02-25T09:12:28.834Z,102872.61
2018-02-25T09:14:56.389Z,102867.60
2018-02-25T09:17:23.970Z,102862.38
2018-02-25T09:19:51.554Z,102865.66
2018-02-25T09:22:19.111Z,102866.80
2018-02-25T09:24:46.718Z,102864.23
2018-02-25T09:27:14.287Z,102861.20
2018-02-25T09:29:41.850Z,102861.02
2018-02-25T09:32:09.416Z,102857.16
2018-02-25T09:34:36.979Z,102862.27
2018-02-25T09:37:04.534Z,102859.59
2018-02-25T09:39:32.890Z,102858.23
2018-02-25T09:42:00.661Z,102851.28
2018-02-25T09:44:28.984Z,102850.55
2018-02-25T09:46:56.535Z,102848.39
2018-02-25T09:49:24.089Z,102842.89
2018-02-25T09:51:51.652Z,102835.18
2018-02-25T09:54:19.205Z,102835.83
2018-02-25T09:56:46.804Z,102838.39
2018-02-25T09:59:14.386Z,102831.30
2018-02-25T10:01:41.970Z,102832.60
2018-02-25T10:04:09.519Z,102827.00
2018-02-25T10:06:37.067Z,102818.77
2018-02-25T10:09:04.617Z,102824.82
2018-02-25T10:11:32.230Z,102816.80
2018-02-25T10:14:00.628Z,102815.30
2018-02-25T10:16:28.175Z,102812.91
2018-02-25T10:18:56.561Z,102803.67
2018-02-25T10:21:24.112Z,102805.53
2018-02-25T10:23:52.529Z,102804.75
2018-02-25T10:26:20.088Z,102801.01
2018-02-25T10:28:47.643Z,102791.59
2018-02-25T10:31:15.210Z,102796.00
2018-02-25T10:33:43.810Z,102791.41
2018-02-25T10:36:12.156Z,102792.29
2018-02-25T10:38:39.743Z,102781.00
2018-02-25T10:41:07.341Z,102782.83
2018-02-25T10:43:34.894Z,102776.77
2018-02-25T10:46:02.444Z,102776.24
2018-02-25T10:48:30.030Z,102775.64
2018-02-25T10:50:57.581Z,102768.53
2018-02-25T10:53:26.067Z,102760.05
2018-02-25T10:55:53.659Z,102753.96
2018-02-25T10:58:21.206Z,102760.17
2018-02-25T11:00:54.463Z,102745.39
2018-02-25T11:03:22.013Z,102739.99
2018-02-25T11:05:49.621Z,102743.70
2018-02-25T11:08:17.180Z,102739.63
2018-02-25T11:10:44.739Z,102739.65
2018-02-25T11:13:12.314Z,102731.47
2018-02-25T11:15:39.858Z,102729.73
2018-02-25T11:18:08.284Z,102726.36
2018-02-25T11:20:35.840Z,102727.22
2018-02-25T11:23:04.292Z,102711.03
2018-02-25T11:25:31.855Z,102711.06
2018-02-25T11:27:59.444Z,102702.91
2018-02-25T11:30:27.000Z,102705.85
2018-02-25T11:32:54.588Z,102700.33
2018-02-25T11:35:22.145Z,102700.20
2018-02-25T11:37:50.599Z,102689.69
2018-02-25T11:40:18.967Z,102694.33
2018-02-25T11:42:46.514Z,102690.53
2018-02-25T11:45:14.073Z,102688.01
2018-02-25T11:47:41.687Z,102687.16
2018-02-25T11:50:09.217Z,102682.48
2018-02-25T11:52:36.814Z,102681.67
2018-02-25T11:55:04.396Z,102682.91
2018-02-25T11:57:32.958Z,102681.69
2018-02-25T12:00:00.519Z,102672.98
2018-02-25T12:02:28.130Z,102676.91
2018-02-25T12:04:55.788Z,102675.56
2018-02-25T12:07:23.341Z,102672.61
2018-02-25T12:09:51.792Z,102672.92
2018-02-25T12:12:19.347Z,102674.22
2018-02-25T12:14:46.900Z,102667.00
2018-02-25T12:17:14.452Z,102673.84
2018-02-25T12:19:42.011Z,102667.47
2018-02-25T12:22:10.379Z,102664.08
2018-02-25T12:24:37.976Z,102670.59
2018-02-25T12:27:06.223Z,102665.44
2018-02-25T12:29:33.783Z,102659.86
2018-02-25T12:32:01.338Z,102657.71
2018-02-25T12:34:28.926Z,102654.23
2018-02-25T12:36:57.259Z,102652.52
2018-02-25T12:39:24.811Z,102654.18
2018-02-25T12:41:52.373Z,102655.58
2018-02-25T12:44:19.935Z,102647.84
2018-02-25T12:46:48.310Z,102641.89
2018-02-25T12:49:15.850Z,102635.91
2018-02-25T12:51:44.255Z,102634.62
2018-02-25T12:54:11.847Z,102633.75
2018-02-25T12:56:39.411Z,102629.03
2018-02-25T12:59:07.011Z,102631.61
2018-02-25T13:01:35.460Z,102619.59
2018-02-25T13:04:03.011Z,102624.33
2018-02-25T13:06:30.569Z,102616.58
2018-02-25T13:08:58.122Z,102630.31
2018-02-25T13:11:25.671Z,102616.59
2018-02-25T13:13:53.223Z,102625.19
2018-02-25T13:16:20.781Z,102619.62
2018-02-25T13:18:48.373Z,102617.89
2018-02-25T13:21:15.934Z,102611.88
2018-02-25T13:23:43.476Z,102613.18
2018-02-25T13:26:11.875Z,102617.46
2018-02-25T13:28:40.219Z,102607.16
2018-02-25T13:31:07.770Z,102606.33
2018-02-25T13:33:35.323Z,102610.61
2018-02-25T13:36:03.693Z,102609.74
2018-02-25T13:38:31.942Z,102605.88
2018-02-25T13:41:00.463Z,102603.76
2018-02-25T13:43:28.794Z,102599.45
2018-02-25T13:45:56.349Z,102596.03
2018-02-25T13:48:24.771Z,102596.45
2018-02-25T13:50:53.103Z,102595.17
2018-02-25T13:53:21.507Z,102590.03
2018-02-25T13:55:49.053Z,102597.73
2018-02-25T13:58:16.642Z,102583.59
2018-02-25T14:00:44.203Z,102599.00
2018-02-25T14:03:12.562Z,102592.13
2018-02-25T14:05:40.160Z,102588.75
2018-02-25T14:08:07.720Z,102590.02
2018-02-25T14:10:35.326Z,102582.75
2018-02-25T14:13:02.860Z,102589.61
2018-02-25T14:15:31.355Z,102589.59
2018-02-25T14:17:58.915Z,102587.87
2018-02-25T14:20:26.499Z,102586.59
2018-02-25T14:22:54.047Z,102587.04
2018-02-25T14:25:21.644Z,102587.02
2018-02-25T14:27:49.204Z,102587.45
2018-02-25T14:30:16.798Z,102584.03
2018-02-25T14:32:44.355Z,102581.44
2018-02-25T14:35:12.895Z,102580.61
2018-02-25T14:37:40.487Z,102581.88
2018-02-25T14:40:08.096Z,102577.61
2018-02-25T14:42:35.684Z,102581.45
2018-02-25T14:45:04.052Z,102575.03
2018-02-25T14:47:31.639Z,102578.87
2018-02-25T14:49:59.224Z,102583.99
2018-02-25T14:52:26.779Z,102575.02
2018-02-25T14:54:54.371Z,102572.02
2018-02-25T14:57:22.950Z,102568.58
2018-02-25T14:59:50.543Z,102573.70
2018-02-25T15:02:18.098Z,102569.84
2018-02-25T15:04:45.715Z,102568.10
2018-02-25T15:07:13.422Z,102570.13
2018-02-25T15:09:41.003Z,102572.29
2018-02-25T15:12:08.672Z,102570.47
2018-02-25T15:14:36.218Z,102575.91
2018-02-25T15:17:03.764Z,102578.51
2018-02-25T15:19:31.314Z,102579.84
2018-02-25T15:21:58.865Z,102577.67
2018-02-25T15:24:26.426Z,102577.69
2018-02-25T15:26:53.988Z,102572.67
2018-02-25T15:29:21.545Z,102572.70
2018-02-25T15:31:49.108Z,102571.80
2018-02-25T15:34:16.659Z,102571.45
2018-02-25T15:36:45.127Z,102570.52
2018-02-25T15:39:12.687Z,102566.23
2018-02-25T15:41:40.232Z,102574.77
2018-02-25T15:44:07.779Z,102575.22
2018-02-25T15:46:35.333Z,102571.80
2018-02-25T15:49:02.918Z,102574.33
2018-02-25T15:51:30.472Z,102570.88
2018-02-25T15:53:58.016Z,102573.39
2018-02-25T15:56:25.567Z,102569.18
2018-02-25T15:58:53.117Z,102567.35
2018-02-25T16:01:21.586Z,102566.48
2018-02-25T16:03:49.135Z,102562.94
2018-02-25T16:06:16.731Z,102562.50
2018-02-25T16:08:44.278Z,102572.20
2018-02-25T16:11:11.822Z,102572.13
2018-02-25T16:13:39.377Z,102569.04
2018-02-25T16:16:06.918Z,102570.83
2018-02-25T16:18:34.476Z,102572.88
2018-02-25T16:21:02.028Z,102582.23
2018-02-25T16:23:29.578Z,102578.02
2018-02-25T16:25:57.126Z,102578.84
2018-02-25T16:28:24.679Z,102577.46
2018-02-25T16:30:52.233Z,102591.82
2018-02-25T16:33:19.779Z,102592.27
2018-02-25T16:35:47.420Z,102588.37
2018-02-25T16:38:14.983Z,102591.02
2018-02-25T16:40:43.317Z,102589.76
2018-02-25T16:43:10.868Z,102592.72
2018-02-25T16:45:38.490Z,102595.29
2018-02-25T16:48:06.044Z,102594.73
2018-02-25T16:50:33.954Z,102595.59
2018-02-25T16:53:01.506Z,102600.00
2018-02-25T16:55:29.141Z,102601.95
2018-02-25T16:57:56.717Z,102604.45
2018-02-25T17:00:24.275Z,102602.45
2018-02-25T17:02:51.826Z,102605.16
2018-02-25T17:05:19.702Z,102604.57
2018-02-25T17:07:47.266Z,102605.77
2018-02-25T17:10:15.646Z,102606.84
2018-02-25T17:12:44.073Z,102610.45
2018-02-25T17:15:11.705Z,102604.77
2018-02-25T17:17:39.256Z,102608.11
2018-02-25T17:20:07.361Z,102615.52
2018-02-25T17:22:34.917Z,102614.83
2018-02-25T17:25:02.526Z,102615.63
2018-02-25T17:27:30.076Z,102615.69
2018-02-25T17:29:57.688Z,102615.44
2018-02-25T17:32:25.664Z,102620.20
2018-02-25T17:34:53.211Z,102616.36
2018-02-25T17:37:20.850Z,102619.02
2018-02-25T17:39:48.402Z,102616.95
2018-02-25T17:42:16.743Z,102609.83
2018-02-25T17:44:44.302Z,102610.65
2018-02-25T17:47:11.898Z,102610.62
2018-02-25T17:49:39.491Z,102609.73
2018-02-25T17:52:07.033Z,102605.77
2018-02-25T17:54:34.590Z,102603.83
2018-02-25T17:57:02.146Z,102599.48
2018-02-25T17:59:30.524Z,102602.00
2018-02-25T18:01:58.103Z,102597.67
2018-02-25T18:04:26.481Z,102598.03
2018-02-25T18:06:54.822Z,102607.98
2018-02-25T18:09:22.370Z,102604.03
2018-02-25T18:11:49.983Z,102608.19
2018-02-25T18:14:17.574Z,102600.61
2018-02-25T18:16:45.154Z,102597.94
2018-02-25T18:19:13.933Z,102596.52
2018-02-25T18:21:41.548Z,102598.51
2018-02-25T18:24:09.101Z,102599.56
2018-02-25T18:26:36.691Z,102596.47
2018-02-25T18:29:04.255Z,102599.36
2018-02-25T18:31:41.462Z,102598.39
2018-02-25T18:34:18.859Z,102601.25
2018-02-25T18:36:57.478Z,102610.57
2018-02-25T18:39:28.088Z,102604.08
2018-02-25T18:41:56.569Z,102602.77
2018-02-25T18:44:25.643Z,102609.88
2018-02-25T18:46:54.851Z,102603.39
2018-02-25T18:49:26.313Z,102609.75
2018-02-25T18:51:53.899Z,102611.84
2018-02-25T18:54:26.884Z,102619.16
2018-02-25T18:56:54.496Z,102610.69
2018-02-25T18:59:22.059Z,102614.52
2018-02-25T19:01:49.720Z,102619.63
2018-02-25T19:04:17.281Z,102624.61
2018-02-25T19:06:45.180Z,102620.03
2018-02-25T19:09:12.807Z,102630.34
2018-02-25T19:11:40.367Z,102616.31
2018-02-25T19:14:07.958Z,102629.13
2018-02-25T19:16:35.750Z,102611.36
2018-02-25T19:19:09.182Z,102617.41
2018-02-25T19:21:36.755Z,102622.98
2018-02-25T19:24:04.704Z,102622.22
2018-02-25T19:26:32.491Z,102621.70
2018-02-25T19:29:00.048Z,102619.22
2018-02-25T19:31:28.316Z,102617.05
2018-02-25T19:33:57.584Z,102617.48
2018-02-25T19:36:30.763Z,102622.59
2018-02-25T19:39:03.900Z,102622.76
2018-02-25T19:41:38.518Z,102617.23
2018-02-25T19:44:06.203Z,102620.67
2018-02-25T19:46:33.761Z,102617.36
2018-02-25T19:49:01.320Z,102617.81
2018-02-25T19:51:28.885Z,102621.68
2018-02-25T19:53:56.441Z,102617.38
2018-02-25T19:56:23.986Z,102617.77
2018-02-25T19:58:51.539Z,102618.09
2018-02-25T20:01:19.099Z,102616.82
2018-02-25T20:03:59.134Z,102617.28
2018-02-25T20:06:26.685Z,102618.06
2018-02-25T20:08:58.635Z,102615.44
2018-02-25T20:11:26.197Z,102619.09
2018-02-25T20:13:55.197Z,102619.83
2018-02-25T20:16:22.807Z,102615.09
2018-02-25T20:18:50.369Z,102617.28
2018-02-25T20:21:17.971Z,102615.28
2018-02-25T20:23:45.562Z,102616.69
2018-02-25T20:26:13.212Z,102614.76
2018-02-25T20:28:42.514Z,102615.66
2018-02-25T20:31:10.141Z,102611.39
2018-02-25T20:33:37.691Z,102615.28
2018-02-25T20:36:05.247Z,102613.66
2018-02-25T20:38:32.812Z,102617.13
2018-02-25T20:41:00.362Z,102615.00
2018-02-25T20:43:27.940Z,102613.22
2018-02-25T20:45:55.510Z,102612.32
2018-02-25T20:48:23.760Z,102610.95
2018-02-25T20:50:51.327Z,102615.17
2018-02-25T20:53:19.907Z,102614.94
2018-02-25T20:55:48.167Z,102606.31
2018-02-25T20:58:15.790Z,102614.60
2018-02-25T21:00:43.342Z,102613.05
2018-02-25T21:03:10.895Z,102615.51
2018-02-25T21:05:38.449Z,102614.72
2018-02-25T21:08:05.998Z,102618.98
2018-02-25T21:10:34.473Z,102618.66
2018-02-25T21:13:02.054Z,102623.37
2018-02-25T21:15:31.181Z,102617.51
2018-02-25T21:17:58.762Z,102623.20
2018-02-25T21:20:26.326Z,102624.58
2018-02-25T21:22:54.208Z,102623.19
2018-02-25T21:25:21.764Z,102624.64
2018-02-25T21:27:49.323Z,102618.06
2018-02-25T21:30:16.943Z,102625.59
2018-02-25T21:32:44.503Z,102624.20
2018-02-25T21:35:12.130Z,102619.28
2018-02-25T21:37:39.696Z,102624.83
2018-02-25T21:40:07.242Z,102623.47
2018-02-25T21:42:34.811Z,102619.52
2018-02-25T21:45:02.358Z,102621.88
2018-02-25T21:47:29.908Z,102622.11
2018-02-25T21:49:57.458Z,102620.16
2018-02-25T21:52:25.083Z,102619.03
2018-02-25T21:54:57.670Z,102621.83
2018-02-25T21:57:31.002Z,102620.77
2018-02-25T22:00:04.031Z,102618.02
2018-02-25T22:02:37.307Z,102608.91
2018-02-25T22:05:04.854Z,102615.11
2018-02-25T22:07:32.472Z,102621.01
2018-02-25T22:10:00.019Z,102622.98
2018-02-25T22:12:27.570Z,102620.40
2018-02-25T22:14:55.262Z,102615.06
2018-02-25T22:17:22.874Z,102608.71
2018-02-25T22:19:50.440Z,102615.06
2018-02-25T22:22:17.990Z,102612.61
2018-02-25T22:24:45.695Z,102612.58
2018-02-25T22:27:13.376Z,102606.19
2018-02-25T22:29:40.998Z,102611.42
2018-02-25T22:32:09.492Z,102612.87
2018-02-25T22:34:37.846Z,102609.39
2018-02-25T22:37:06.011Z,102619.17
2018-02-25T22:39:33.623Z,102616.34
2018-02-25T22:42:01.431Z,102614.53
2018-02-25T22:44:28.982Z,102615.23
2018-02-25T22:46:56.569Z,102623.22
2018-02-25T22:49:24.148Z,102617.60
2018-02-25T22:51:51.738Z,102622.73
2018-02-25T22:54:20.191Z,102625.50
2018-02-25T22:56:47.753Z,102626.98
2018-02-25T22:59:15.306Z,102625.97
2018-02-25T23:01:42.873Z,102623.92
2018-02-25T23:04:11.362Z,102624.83
2018-02-25T23:06:38.917Z,102633.66
2018-02-25T23:09:07.163Z,102638.97
2018-02-25T23:11:34.714Z,102638.38
2018-02-25T23:14:02.311Z,102644.87
2018-02-25T23:16:29.901Z,102641.11
2018-02-25T23:18:57.534Z,102639.60
2018-02-25T23:21:25.135Z,102641.13
2018-02-25T23:23:52.688Z,102640.61
2018-02-25T23:26:20.314Z,102643.13
2018-02-25T23:28:48.679Z,102641.03
2018-02-25T23:31:16.955Z,102639.95
2018-02-25T23:33:45.290Z,102637.41
2018-02-25T23:36:12.875Z,102642.73
2018-02-25T23:38:41.235Z,102639.36
2018-02-25T23:41:08.908Z,102638.25
2018-02-25T23:43:36.570Z,102641.30
2018-02-25T23:46:04.148Z,102643.14
2018-02-25T23:48:32.499Z,102644.49
2018-02-25T23:51:00.054Z,102642.31
2018-02-25T23:53:27.614Z,102644.76
2018-02-25T23:55:55.255Z,102643.76
2018-02-25T23:58:22.908Z,102641.53
